createdAt,value
2023-05-24T00:00:24.566Z,11.36
2023-05-24T00:01:24.537Z,11.20
2023-05-24T00:02:24.644Z,11.38
2023-05-24T00:03:24.606Z,11.29
2023-05-24T00:04:24.598Z,11.31
2023-05-24T00:05:24.514Z,11.25
2023-05-24T00:06:24.485Z,11.21
2023-05-24T00:07:24.488Z,11.20
2023-05-24T00:08:24.459Z,11.28
2023-05-24T00:09:24.437Z,11.17
2023-05-24T00:10:24.448Z,11.14
2023-05-24T00:11:24.416Z,11.10
2023-05-24T00:12:24.406Z,11.07
2023-05-24T00:13:24.393Z,11.11
2023-05-24T00:14:24.436Z,11.17
2023-05-24T00:15:24.406Z,11.10
2023-05-24T00:16:24.374Z,11.06
2023-05-24T00:17:24.367Z,10.96
2023-05-24T00:18:24.328Z,11.03
2023-05-24T00:19:24.321Z,11.02
2023-05-24T00:20:24.387Z,11.09
2023-05-24T00:21:24.313Z,10.99
2023-05-24T00:22:24.283Z,10.92
2023-05-24T00:23:24.288Z,11.06
2023-05-24T00:24:24.271Z,10.94
2023-05-24T00:25:24.266Z,10.86
2023-05-24T00:26:24.238Z,10.96
2023-05-24T00:27:24.254Z,10.91
2023-05-24T00:28:24.252Z,10.95
2023-05-24T00:29:24.226Z,10.95
2023-05-24T00:30:24.229Z,10.81
2023-05-24T00:31:24.241Z,10.84
2023-05-24T00:32:24.201Z,10.80
2023-05-24T00:33:24.193Z,10.88
2023-05-24T00:34:24.158Z,10.78
2023-05-24T00:35:24.178Z,10.76
2023-05-24T00:36:24.132Z,10.78
2023-05-24T00:37:24.131Z,10.86
2023-05-24T00:38:24.107Z,10.73
2023-05-24T00:39:24.111Z,10.77
2023-05-24T00:40:24.127Z,10.83
2023-05-24T00:41:24.086Z,10.80
2023-05-24T00:42:24.056Z,10.80
2023-05-24T00:43:24.080Z,10.80
2023-05-24T00:44:24.097Z,10.80
2023-05-24T00:45:24.044Z,10.74
2023-05-24T00:46:24.085Z,10.76
2023-05-24T00:47:24.055Z,10.80
2023-05-24T00:48:23.989Z,10.68
2023-05-24T00:49:24.057Z,10.71
2023-05-24T00:50:23.990Z,10.74
2023-05-24T00:51:23.991Z,10.71
2023-05-24T00:52:23.943Z,10.68
2023-05-24T00:53:23.952Z,10.71
2023-05-24T00:54:23.998Z,10.66
2023-05-24T00:55:23.944Z,10.68
2023-05-24T00:56:23.907Z,10.66
2023-05-24T00:57:23.900Z,10.63
2023-05-24T00:58:23.890Z,10.62
2023-05-24T00:59:23.894Z,10.68
2023-05-24T01:00:23.874Z,10.60
2023-05-24T01:01:23.871Z,10.65
2023-05-24T01:02:23.974Z,10.51
2023-05-24T01:03:23.917Z,10.43
2023-05-24T01:04:23.839Z,10.51
2023-05-24T01:05:23.827Z,10.47
2023-05-24T01:06:23.790Z,10.53
2023-05-24T01:07:23.795Z,10.60
2023-05-24T01:08:23.765Z,10.56
2023-05-24T01:09:23.756Z,10.47
2023-05-24T01:10:23.781Z,10.58
2023-05-24T01:11:23.748Z,10.55
2023-05-24T01:12:23.720Z,10.58
2023-05-24T01:13:23.714Z,10.55
2023-05-24T01:14:23.758Z,10.40
2023-05-24T01:15:23.704Z,10.47
2023-05-24T01:16:23.716Z,10.44
2023-05-24T01:17:23.684Z,10.43
2023-05-24T01:18:23.676Z,10.40
2023-05-24T01:19:23.669Z,10.52
2023-05-24T01:20:23.682Z,10.55
2023-05-24T01:21:23.636Z,10.51
2023-05-24T01:22:23.605Z,10.37
2023-05-24T01:23:23.601Z,10.36
2023-05-24T01:24:23.612Z,10.37
2023-05-24T01:25:23.582Z,10.34
2023-05-24T01:26:23.560Z,10.42
2023-05-24T01:27:23.568Z,10.42
2023-05-24T01:28:23.538Z,10.34
2023-05-24T01:29:23.552Z,10.40
2023-05-24T01:30:23.513Z,10.21
2023-05-24T01:31:23.545Z,10.30
2023-05-24T01:32:23.538Z,10.33
2023-05-24T01:33:23.500Z,10.34
2023-05-24T01:34:23.515Z,10.24
2023-05-24T01:35:23.479Z,10.30
2023-05-24T01:36:23.490Z,10.36
2023-05-24T01:37:23.456Z,10.26
2023-05-24T01:38:23.428Z,10.25
2023-05-24T01:39:23.420Z,10.22
2023-05-24T01:40:23.401Z,10.28
2023-05-24T01:41:23.409Z,10.22
2023-05-24T01:42:23.391Z,10.18
2023-05-24T01:43:23.398Z,10.15
2023-05-24T01:44:23.396Z,10.15
2023-05-24T01:45:23.359Z,10.10
2023-05-24T01:46:23.367Z,10.07
2023-05-24T01:47:23.411Z,10.17
2023-05-24T01:48:23.312Z,10.14
2023-05-24T01:49:23.321Z,10.07
2023-05-24T01:50:25.667Z,10.01
2023-05-24T01:51:23.290Z,10.01
2023-05-24T01:52:23.300Z,9.99
2023-05-24T01:53:23.301Z,9.94
2023-05-24T01:54:23.282Z,9.91
2023-05-24T01:55:23.242Z,9.99
2023-05-24T01:56:23.222Z,9.97
2023-05-24T01:57:23.203Z,9.99
2023-05-24T01:58:23.203Z,10.01
2023-05-24T01:59:23.179Z,9.91
2023-05-24T02:00:23.214Z,9.89
2023-05-24T02:01:23.220Z,9.88
2023-05-24T02:02:23.227Z,9.89
2023-05-24T02:03:23.157Z,9.94
2023-05-24T02:04:23.129Z,9.82
2023-05-24T02:05:23.146Z,9.81
2023-05-24T02:06:23.142Z,9.73
2023-05-24T02:07:23.096Z,9.79
2023-05-24T02:08:23.085Z,9.71
2023-05-24T02:09:23.085Z,9.78
2023-05-24T02:10:23.106Z,9.79
2023-05-24T02:11:23.059Z,9.85
2023-05-24T02:12:23.035Z,9.64
2023-05-24T02:13:23.027Z,9.71
2023-05-24T02:14:23.040Z,9.61
2023-05-24T02:15:23.018Z,9.60
2023-05-24T02:16:23.042Z,9.50
2023-05-24T02:17:23.037Z,9.50
2023-05-24T02:18:22.990Z,9.56
2023-05-24T02:19:22.956Z,9.50
2023-05-24T02:20:23.084Z,9.52
2023-05-24T02:21:22.952Z,9.52
2023-05-24T02:22:22.952Z,9.56
2023-05-24T02:23:22.917Z,9.53
2023-05-24T02:24:22.920Z,9.49
2023-05-24T02:25:22.901Z,9.46
2023-05-24T02:26:22.916Z,9.53
2023-05-24T02:27:22.866Z,9.56
2023-05-24T02:28:22.877Z,9.39
2023-05-24T02:29:22.857Z,9.43
2023-05-24T02:30:22.851Z,9.39
2023-05-24T02:31:22.986Z,9.34
2023-05-24T02:32:22.814Z,9.42
2023-05-24T02:33:22.799Z,9.40
2023-05-24T02:34:22.809Z,9.42
2023-05-24T02:35:22.787Z,9.34
2023-05-24T02:36:22.781Z,9.28
2023-05-24T02:37:22.771Z,9.32
2023-05-24T02:38:22.781Z,9.25
2023-05-24T02:39:22.749Z,9.35
2023-05-24T02:40:22.740Z,9.32
2023-05-24T02:41:22.773Z,9.32
2023-05-24T02:42:22.717Z,9.23
2023-05-24T02:43:22.712Z,9.28
2023-05-24T02:44:22.676Z,9.25
2023-05-24T02:45:22.675Z,9.21
2023-05-24T02:46:22.690Z,9.15
2023-05-24T02:47:22.667Z,9.12
2023-05-24T02:48:22.651Z,9.15
2023-05-24T02:49:22.626Z,9.15
2023-05-24T02:50:22.628Z,9.18
2023-05-24T02:51:22.604Z,9.06
2023-05-24T02:52:22.601Z,9.10
2023-05-24T02:53:22.580Z,9.20
2023-05-24T02:54:22.581Z,9.06
2023-05-24T02:55:22.549Z,9.09
2023-05-24T02:56:22.550Z,9.09
2023-05-24T02:57:22.535Z,9.04
2023-05-24T02:58:22.512Z,9.06
2023-05-24T02:59:22.516Z,9.09
2023-05-24T03:00:22.500Z,9.05
2023-05-24T03:01:22.510Z,9.01
2023-05-24T03:02:22.550Z,9.04
2023-05-24T03:03:22.679Z,9.05
2023-05-24T03:04:22.463Z,8.96
2023-05-24T03:05:22.425Z,8.93
2023-05-24T03:06:22.428Z,9.05
2023-05-24T03:07:22.416Z,8.93
2023-05-24T03:08:22.411Z,8.91
2023-05-24T03:09:22.388Z,9.05
2023-05-24T03:10:22.421Z,8.99
2023-05-24T03:11:22.568Z,9.01
2023-05-24T03:12:22.366Z,9.04
2023-05-24T03:13:22.352Z,9.04
2023-05-24T03:14:22.346Z,8.93
2023-05-24T03:15:22.342Z,9.01
2023-05-24T03:16:22.398Z,8.87
2023-05-24T03:17:22.303Z,8.93
2023-05-24T03:18:22.281Z,8.81
2023-05-24T03:19:22.267Z,8.86
2023-05-24T03:20:22.334Z,8.90
2023-05-24T03:21:22.299Z,8.90
2023-05-24T03:22:22.254Z,8.90
2023-05-24T03:23:22.257Z,8.79
2023-05-24T03:24:22.258Z,8.90
2023-05-24T03:25:22.226Z,8.87
2023-05-24T03:26:22.251Z,8.90
2023-05-24T03:27:22.196Z,8.79
2023-05-24T03:28:22.228Z,8.83
2023-05-24T03:29:22.158Z,8.78
2023-05-24T03:30:22.165Z,8.96
2023-05-24T03:31:22.200Z,8.78
2023-05-24T03:32:22.185Z,8.79
2023-05-24T03:33:22.127Z,8.78
2023-05-24T03:34:22.120Z,8.75
2023-05-24T03:35:22.089Z,8.86
2023-05-24T03:36:22.094Z,8.79
2023-05-24T03:37:22.109Z,8.76
2023-05-24T03:38:22.060Z,8.76
2023-05-24T03:39:22.041Z,8.84
2023-05-24T03:40:22.060Z,8.81
2023-05-24T03:41:22.026Z,8.76
2023-05-24T03:42:22.062Z,8.78
2023-05-24T03:43:22.012Z,8.86
2023-05-24T03:44:21.995Z,8.81
2023-05-24T03:45:34.476Z,8.83
2023-05-24T03:46:23.051Z,8.88
2023-05-24T03:47:22.000Z,8.76
2023-05-24T03:48:22.509Z,8.87
2023-05-24T03:49:21.932Z,8.87
2023-05-24T03:50:21.923Z,8.73
2023-05-24T03:51:21.928Z,8.86
2023-05-24T03:52:21.901Z,8.75
2023-05-24T03:53:23.131Z,8.76
2023-05-24T03:54:21.891Z,8.76
2023-05-24T03:55:21.875Z,8.72
2023-05-24T03:56:21.886Z,8.86
2023-05-24T03:57:21.838Z,8.76
2023-05-24T03:58:21.857Z,8.79
2023-05-24T03:59:21.824Z,8.90
2023-05-24T04:00:21.820Z,8.87
2023-05-24T04:01:32.607Z,8.88
2023-05-24T04:02:22.871Z,8.93
2023-05-24T04:03:21.855Z,8.88
2023-05-24T04:04:21.816Z,8.99
2023-05-24T04:05:21.742Z,9.02
2023-05-24T04:06:21.750Z,8.93
2023-05-24T04:07:21.717Z,9.04
2023-05-24T04:08:21.727Z,9.02
2023-05-24T04:09:21.712Z,9.01
2023-05-24T04:10:21.727Z,9.02
2023-05-24T04:11:21.720Z,9.12
2023-05-24T04:12:21.685Z,9.05
2023-05-24T04:13:21.647Z,9.15
2023-05-24T04:14:21.682Z,9.09
2023-05-24T04:15:21.630Z,9.10
2023-05-24T04:16:21.676Z,9.13
2023-05-24T04:17:21.737Z,9.31
2023-05-24T04:18:21.778Z,9.18
2023-05-24T04:19:21.583Z,9.28
2023-05-24T04:20:21.618Z,9.27
2023-05-24T04:21:21.588Z,9.25
2023-05-24T04:22:23.177Z,9.39
2023-05-24T04:23:21.567Z,9.28
2023-05-24T04:24:21.528Z,9.39
2023-05-24T04:25:21.525Z,9.32
2023-05-24T04:26:21.520Z,9.45
2023-05-24T04:27:21.490Z,9.48
2023-05-24T04:28:21.495Z,9.52
2023-05-24T04:29:21.490Z,9.61
2023-05-24T04:30:21.654Z,9.58
2023-05-24T04:31:21.498Z,9.67
2023-05-24T04:32:21.464Z,9.67
2023-05-24T04:33:21.437Z,9.67
2023-05-24T04:34:21.445Z,9.67
2023-05-24T04:35:21.426Z,9.71
2023-05-24T04:36:21.444Z,9.71
2023-05-24T04:37:21.391Z,9.71
2023-05-24T04:38:22.062Z,9.76
2023-05-24T04:39:21.370Z,9.75
2023-05-24T04:40:21.352Z,9.88
2023-05-24T04:41:21.334Z,9.82
2023-05-24T04:42:21.357Z,9.93
2023-05-24T04:43:21.308Z,9.97
2023-05-24T04:44:21.306Z,9.93
2023-05-24T04:45:21.296Z,9.96
2023-05-24T04:46:21.334Z,9.91
2023-05-24T04:47:21.321Z,9.91
2023-05-24T04:48:21.273Z,10.01
2023-05-24T04:49:21.248Z,10.09
2023-05-24T04:50:21.250Z,9.97
2023-05-24T04:51:21.240Z,10.14
2023-05-24T04:52:21.227Z,10.17
2023-05-24T04:53:21.393Z,10.14
2023-05-24T04:54:21.214Z,10.14
2023-05-24T04:55:21.174Z,10.18
2023-05-24T04:56:21.180Z,10.26
2023-05-24T04:57:21.195Z,10.17
2023-05-24T04:58:21.158Z,10.33
2023-05-24T04:59:21.128Z,10.39
2023-05-24T05:00:21.136Z,10.40
2023-05-24T05:01:21.149Z,10.51
2023-05-24T05:02:21.138Z,10.56
2023-05-24T05:03:21.197Z,10.60
2023-05-24T05:04:21.093Z,10.68
2023-05-24T05:05:21.057Z,10.66
2023-05-24T05:06:21.067Z,10.68
2023-05-24T05:07:21.047Z,10.81
2023-05-24T05:08:21.044Z,10.74
2023-05-24T05:09:21.014Z,10.88
2023-05-24T05:10:23.666Z,10.95
2023-05-24T05:11:21.008Z,10.83
2023-05-24T05:12:20.998Z,10.88
2023-05-24T05:13:20.971Z,10.96
2023-05-24T05:14:20.965Z,10.95
2023-05-24T05:15:20.943Z,10.99
2023-05-24T05:16:20.969Z,11.01
2023-05-24T05:17:20.933Z,10.95
2023-05-24T05:18:20.933Z,10.94
2023-05-24T05:19:20.922Z,10.94
2023-05-24T05:20:20.960Z,10.98
2023-05-24T05:21:20.907Z,11.07
2023-05-24T05:22:20.870Z,11.11
2023-05-24T05:23:20.870Z,11.09
2023-05-24T05:24:20.857Z,11.16
2023-05-24T05:25:20.852Z,11.24
2023-05-24T05:26:20.859Z,11.28
2023-05-24T05:27:20.818Z,11.34
2023-05-24T05:28:20.802Z,11.46
2023-05-24T05:29:22.199Z,11.53
2023-05-24T05:30:20.793Z,11.61
2023-05-24T05:31:20.760Z,11.67
2023-05-24T05:32:20.883Z,11.80
2023-05-24T05:33:20.761Z,11.82
2023-05-24T05:34:20.851Z,11.96
2023-05-24T05:35:20.729Z,12.08
2023-05-24T05:36:20.730Z,12.21
2023-05-24T05:37:20.708Z,12.31
2023-05-24T05:38:20.707Z,12.48
2023-05-24T05:39:20.682Z,12.67
2023-05-24T05:40:20.664Z,12.74
2023-05-24T05:41:20.649Z,12.87
2023-05-24T05:42:20.652Z,13.04
2023-05-24T05:43:20.639Z,12.96
2023-05-24T05:44:20.618Z,13.17
2023-05-24T05:45:20.602Z,13.14
2023-05-24T05:46:20.622Z,13.36
2023-05-24T05:47:20.611Z,13.41
2023-05-24T05:48:20.622Z,13.56
2023-05-24T05:49:20.583Z,13.59
2023-05-24T05:50:20.591Z,13.83
2023-05-24T05:51:20.547Z,13.94
2023-05-24T05:52:20.716Z,13.96
2023-05-24T05:53:20.537Z,14.29
2023-05-24T05:54:20.506Z,14.27
2023-05-24T05:55:20.489Z,14.42
2023-05-24T05:56:20.508Z,14.57
2023-05-24T05:57:20.494Z,14.68
2023-05-24T05:58:20.463Z,14.90
2023-05-24T05:59:20.467Z,14.94
2023-05-24T06:00:20.453Z,15.13
2023-05-24T06:01:20.451Z,15.41
2023-05-24T06:02:20.483Z,15.45
2023-05-24T06:03:20.613Z,15.57
2023-05-24T06:04:20.488Z,15.63
2023-05-24T06:05:20.378Z,15.74
2023-05-24T06:06:20.388Z,15.92
2023-05-24T06:07:20.374Z,16.16
2023-05-24T06:08:20.346Z,16.18
2023-05-24T06:09:20.342Z,16.45
2023-05-24T06:10:20.320Z,16.45
2023-05-24T06:11:20.312Z,16.63
2023-05-24T06:12:20.320Z,16.67
2023-05-24T06:13:20.283Z,16.68
2023-05-24T06:14:20.283Z,16.73
2023-05-24T06:15:20.263Z,16.88
2023-05-24T06:16:20.457Z,16.92
2023-05-24T06:17:20.273Z,16.86
2023-05-24T06:18:20.227Z,16.86
2023-05-24T06:19:20.233Z,16.78
2023-05-24T06:20:20.308Z,16.95
2023-05-24T06:21:20.205Z,16.90
2023-05-24T06:22:20.226Z,16.86
2023-05-24T06:23:20.189Z,16.89
2023-05-24T06:24:20.172Z,16.92
2023-05-24T06:25:20.149Z,16.80
2023-05-24T06:26:20.147Z,16.80
2023-05-24T06:27:20.152Z,16.95
2023-05-24T06:28:20.115Z,17.06
2023-05-24T06:29:20.120Z,17.08
2023-05-24T06:30:20.136Z,17.06
2023-05-24T06:31:20.108Z,17.15
2023-05-24T06:32:20.169Z,17.30
2023-05-24T06:33:20.071Z,17.26
2023-05-24T06:34:20.063Z,17.40
2023-05-24T06:35:20.056Z,17.43
2023-05-24T06:36:20.034Z,17.53
2023-05-24T06:37:20.017Z,17.67
2023-05-24T06:38:20.058Z,17.74
2023-05-24T06:39:20.017Z,17.85
2023-05-24T06:40:20.014Z,17.97
2023-05-24T06:41:19.991Z,18.13
2023-05-24T06:42:19.972Z,18.25
2023-05-24T06:43:19.974Z,18.27
2023-05-24T06:44:19.934Z,18.46
2023-05-24T06:45:19.938Z,18.49
2023-05-24T06:46:19.952Z,18.58
2023-05-24T06:47:19.942Z,18.72
2023-05-24T06:48:20.079Z,18.70
2023-05-24T06:49:19.885Z,18.77
2023-05-24T06:50:19.887Z,18.82
2023-05-24T06:51:19.872Z,18.77
2023-05-24T06:52:19.857Z,18.86
2023-05-24T06:53:19.875Z,18.87
2023-05-24T06:54:19.895Z,18.83
2023-05-24T06:55:19.814Z,18.62
2023-05-24T06:56:19.812Z,18.62
2023-05-24T06:57:19.792Z,18.47
2023-05-24T06:58:19.790Z,18.59
2023-05-24T06:59:19.770Z,18.36
2023-05-24T07:00:19.768Z,18.24
2023-05-24T07:01:19.774Z,18.21
2023-05-24T07:02:19.756Z,18.13
2023-05-24T07:03:19.720Z,18.02
2023-05-24T07:04:19.746Z,18.06
2023-05-24T07:05:19.694Z,17.88
2023-05-24T07:06:19.681Z,17.87
2023-05-24T07:07:19.706Z,17.62
2023-05-24T07:08:19.684Z,17.48
2023-05-24T07:09:19.649Z,17.38
2023-05-24T07:10:19.681Z,17.29
2023-05-24T07:11:19.676Z,17.17
2023-05-24T07:12:19.652Z,17.06
2023-05-24T07:13:19.611Z,16.92
2023-05-24T07:14:19.586Z,16.78
2023-05-24T07:15:19.585Z,16.81
2023-05-24T07:16:19.597Z,16.74
2023-05-24T07:17:19.604Z,16.88
2023-05-24T07:18:19.554Z,16.93
2023-05-24T07:19:19.535Z,17.15
2023-05-24T07:20:19.626Z,17.20
2023-05-24T07:21:19.525Z,17.22
2023-05-24T07:22:19.527Z,17.32
2023-05-24T07:23:19.496Z,17.17
2023-05-24T07:24:19.488Z,17.15
2023-05-24T07:25:19.478Z,17.18
2023-05-24T07:26:19.554Z,17.38
2023-05-24T07:27:19.460Z,17.43
2023-05-24T07:28:19.441Z,17.35
2023-05-24T07:29:19.421Z,17.13
2023-05-24T07:30:31.010Z,17.22
2023-05-24T07:31:20.407Z,17.32
2023-05-24T07:32:19.509Z,17.38
2023-05-24T07:33:19.471Z,17.36
2023-05-24T07:34:19.397Z,17.33
2023-05-24T07:35:19.353Z,17.50
2023-05-24T07:36:19.348Z,17.32
2023-05-24T07:37:19.333Z,17.26
2023-05-24T07:38:19.336Z,17.15
2023-05-24T07:39:19.323Z,17.04
2023-05-24T07:40:19.320Z,16.90
2023-05-24T07:41:19.299Z,16.74
2023-05-24T07:42:19.324Z,16.71
2023-05-24T07:43:19.278Z,16.68
2023-05-24T07:44:19.252Z,16.77
2023-05-24T07:45:19.247Z,17.03
2023-05-24T07:46:19.295Z,17.08
2023-05-24T07:47:19.236Z,17.32
2023-05-24T07:48:19.224Z,17.82
2023-05-24T07:49:19.201Z,18.22
2023-05-24T07:50:19.194Z,18.58
2023-05-24T07:51:19.171Z,18.79
2023-05-24T07:52:19.173Z,18.99
2023-05-24T07:53:19.172Z,19.38
2023-05-24T07:54:19.159Z,19.68
2023-05-24T07:55:19.132Z,19.95
2023-05-24T07:56:19.136Z,20.15
2023-05-24T07:57:19.144Z,20.25
2023-05-24T07:58:19.126Z,20.39
2023-05-24T07:59:19.139Z,20.53
2023-05-24T08:00:19.081Z,20.15
2023-05-24T08:01:19.063Z,19.88
2023-05-24T08:02:19.213Z,19.61
2023-05-24T08:03:19.144Z,19.43
2023-05-24T08:04:19.041Z,19.23
2023-05-24T08:05:19.035Z,19.13
2023-05-24T08:06:19.154Z,19.31
2023-05-24T08:07:19.084Z,19.23
2023-05-24T08:08:18.992Z,19.15
2023-05-24T08:09:18.984Z,19.32
2023-05-24T08:10:18.958Z,19.55
2023-05-24T08:11:18.950Z,19.70
2023-05-24T08:12:18.969Z,19.80
2023-05-24T08:13:18.987Z,19.79
2023-05-24T08:14:18.983Z,19.91
2023-05-24T08:15:18.910Z,20.34
2023-05-24T08:16:18.922Z,20.51
2023-05-24T08:17:18.905Z,20.77
2023-05-24T08:18:18.887Z,20.84
2023-05-24T08:19:18.874Z,20.98
2023-05-24T08:20:18.909Z,21.21
2023-05-24T08:21:18.862Z,21.41
2023-05-24T08:22:18.846Z,21.57
2023-05-24T08:23:18.815Z,21.79
2023-05-24T08:24:18.799Z,21.90
2023-05-24T08:25:18.792Z,22.14
2023-05-24T08:26:18.788Z,22.31
2023-05-24T08:27:18.797Z,22.34
2023-05-24T08:28:18.800Z,22.53
2023-05-24T08:29:18.751Z,22.52
2023-05-24T08:30:18.762Z,22.60
2023-05-24T08:31:18.744Z,22.54
2023-05-24T08:32:18.749Z,22.60
2023-05-24T08:33:18.827Z,22.71
2023-05-24T08:34:18.705Z,22.86
2023-05-24T08:35:20.885Z,23.02
2023-05-24T08:36:18.671Z,23.23
2023-05-24T08:37:18.694Z,23.27
2023-05-24T08:38:18.654Z,23.32
2023-05-24T08:39:18.654Z,23.26
2023-05-24T08:40:18.628Z,23.24
2023-05-24T08:41:18.626Z,22.87
2023-05-24T08:42:18.613Z,22.43
2023-05-24T08:43:18.592Z,22.14
2023-05-24T08:44:18.589Z,21.91
2023-05-24T08:45:18.576Z,21.56
2023-05-24T08:46:18.684Z,21.05
2023-05-24T08:47:18.591Z,20.72
2023-05-24T08:48:18.642Z,20.34
2023-05-24T08:49:18.543Z,20.05
2023-05-24T08:50:18.511Z,19.79
2023-05-24T08:51:18.521Z,19.68
2023-05-24T08:52:18.539Z,19.38
2023-05-24T08:53:18.487Z,19.17
2023-05-24T08:54:18.478Z,18.87
2023-05-24T08:55:18.469Z,18.57
2023-05-24T08:56:18.469Z,18.59
2023-05-24T08:57:18.475Z,18.54
2023-05-24T08:58:18.440Z,18.59
2023-05-24T08:59:18.421Z,18.91
2023-05-24T09:00:18.520Z,19.36
2023-05-24T09:01:18.453Z,19.76
2023-05-24T09:02:18.548Z,19.98
2023-05-24T09:03:18.470Z,19.88
2023-05-24T09:04:18.496Z,20.02
2023-05-24T09:05:18.365Z,20.08
2023-05-24T09:06:18.357Z,20.34
2023-05-24T09:07:18.347Z,20.43
2023-05-24T09:08:18.400Z,20.49
2023-05-24T09:09:18.313Z,20.91
2023-05-24T09:10:18.352Z,21.05
2023-05-24T09:11:18.288Z,21.24
2023-05-24T09:12:28.380Z,21.44
2023-05-24T09:13:19.265Z,21.44
2023-05-24T09:14:18.271Z,21.34
2023-05-24T09:15:18.244Z,21.19
2023-05-24T09:16:18.269Z,20.84
2023-05-24T09:17:18.236Z,20.39
2023-05-24T09:18:18.316Z,19.86
2023-05-24T09:19:18.217Z,19.61
2023-05-24T09:20:18.235Z,19.48
2023-05-24T09:21:18.196Z,19.36
2023-05-24T09:22:18.210Z,19.08
2023-05-24T09:23:18.161Z,18.80
2023-05-24T09:24:18.137Z,18.87
2023-05-24T09:25:18.126Z,18.70
2023-05-24T09:26:18.115Z,18.52
2023-05-24T09:27:18.177Z,18.42
2023-05-24T09:28:18.107Z,18.17
2023-05-24T09:29:18.081Z,18.04
2023-05-24T09:30:18.157Z,18.09
2023-05-24T09:31:18.096Z,17.92
2023-05-24T09:32:18.093Z,17.87
2023-05-24T09:33:18.067Z,17.74
2023-05-24T09:34:18.088Z,17.64
2023-05-24T09:35:18.025Z,17.62
2023-05-24T09:36:18.014Z,17.46
2023-05-24T09:37:18.007Z,17.28
2023-05-24T09:38:18.013Z,17.25
2023-05-24T09:39:17.983Z,17.08
2023-05-24T09:40:17.950Z,16.81
2023-05-24T09:41:17.965Z,16.86
2023-05-24T09:42:18.020Z,16.85
2023-05-24T09:43:17.922Z,16.85
2023-05-24T09:44:17.908Z,16.81
2023-05-24T09:45:17.902Z,16.88
2023-05-24T09:46:17.950Z,16.98
2023-05-24T09:47:17.981Z,17.22
2023-05-24T09:48:17.872Z,17.78
2023-05-24T09:49:17.870Z,18.29
2023-05-24T09:50:18.043Z,18.95
2023-05-24T09:51:17.909Z,19.43
2023-05-24T09:52:17.839Z,19.93
2023-05-24T09:53:17.832Z,20.31
2023-05-24T09:54:17.806Z,20.65
2023-05-24T09:55:17.836Z,20.69
2023-05-24T09:56:17.803Z,20.71
2023-05-24T09:57:17.795Z,20.77
2023-05-24T09:58:17.765Z,20.74
2023-05-24T09:59:17.781Z,20.72
2023-05-24T10:00:17.921Z,20.71
2023-05-24T10:01:17.793Z,20.56
2023-05-24T10:02:17.751Z,20.42
2023-05-24T10:03:17.812Z,20.25
2023-05-24T10:04:17.839Z,20.16
2023-05-24T10:05:17.700Z,20.03
2023-05-24T10:06:17.712Z,20.03
2023-05-24T10:07:17.669Z,19.86
2023-05-24T10:08:17.642Z,19.78
2023-05-24T10:09:17.636Z,19.57
2023-05-24T10:10:17.632Z,19.42
2023-05-24T10:11:17.631Z,19.24
2023-05-24T10:12:17.638Z,19.13
2023-05-24T10:13:17.593Z,18.97
2023-05-24T10:14:17.592Z,18.99
2023-05-24T10:15:17.581Z,18.97
2023-05-24T10:16:17.609Z,19.18
2023-05-24T10:17:17.585Z,19.20
2023-05-24T10:18:17.579Z,19.39
2023-05-24T10:19:17.527Z,19.43
2023-05-24T10:20:17.570Z,19.33
2023-05-24T10:21:17.526Z,19.38
2023-05-24T10:22:17.578Z,19.29
2023-05-24T10:23:17.495Z,19.29
2023-05-24T10:24:17.516Z,19.20
2023-05-24T10:25:17.455Z,18.99
2023-05-24T10:26:17.450Z,18.98
2023-05-24T10:27:17.461Z,18.94
2023-05-24T10:28:17.448Z,18.84
2023-05-24T10:29:17.411Z,18.77
2023-05-24T10:30:17.415Z,18.79
2023-05-24T10:31:17.460Z,18.67
2023-05-24T10:32:17.394Z,18.62
2023-05-24T10:33:17.402Z,18.72
2023-05-24T10:34:17.352Z,18.73
2023-05-24T10:35:17.341Z,18.87
2023-05-24T10:36:17.341Z,19.13
2023-05-24T10:37:17.333Z,19.23
2023-05-24T10:38:17.337Z,19.23
2023-05-24T10:39:17.314Z,19.39
2023-05-24T10:40:17.291Z,19.36
2023-05-24T10:41:17.322Z,19.57
2023-05-24T10:42:17.276Z,19.58
2023-05-24T10:43:17.275Z,19.57
2023-05-24T10:44:17.253Z,19.63
2023-05-24T10:45:17.240Z,19.65
2023-05-24T10:46:17.242Z,19.38
2023-05-24T10:47:17.243Z,19.39
2023-05-24T10:48:17.329Z,19.38
2023-05-24T10:49:17.201Z,19.31
2023-05-24T10:50:17.176Z,19.28
2023-05-24T10:51:17.171Z,19.20
2023-05-24T10:52:17.191Z,19.24
2023-05-24T10:53:17.153Z,19.28
2023-05-24T10:54:17.159Z,19.25
2023-05-24T10:55:17.142Z,19.11
2023-05-24T10:56:17.107Z,19.11
2023-05-24T10:57:17.120Z,18.90
2023-05-24T10:58:17.098Z,18.92
2023-05-24T10:59:17.078Z,18.79
2023-05-24T11:00:26.712Z,18.82
2023-05-24T11:01:18.147Z,18.73
2023-05-24T11:02:17.099Z,18.67
2023-05-24T11:03:17.109Z,18.62
2023-05-24T11:04:17.114Z,18.46
2023-05-24T11:05:17.075Z,18.43
2023-05-24T11:06:16.998Z,18.37
2023-05-24T11:07:17.002Z,18.29
2023-05-24T11:08:17.088Z,18.21
2023-05-24T11:09:16.985Z,18.13
2023-05-24T11:10:16.971Z,18.13
2023-05-24T11:11:25.744Z,18.18
2023-05-24T11:12:18.032Z,18.36
2023-05-24T11:13:16.939Z,18.49
2023-05-24T11:14:16.916Z,18.74
2023-05-24T11:15:16.907Z,18.90
2023-05-24T11:16:16.962Z,19.17
2023-05-24T11:17:16.878Z,19.33
2023-05-24T11:18:16.925Z,19.53
2023-05-24T11:19:16.843Z,19.54
2023-05-24T11:20:16.904Z,19.68
2023-05-24T11:21:16.853Z,19.53
2023-05-24T11:22:16.868Z,19.63
2023-05-24T11:23:16.855Z,19.63
2023-05-24T11:24:16.800Z,19.54
2023-05-24T11:25:16.814Z,19.69
2023-05-24T11:26:16.822Z,19.69
2023-05-24T11:27:16.764Z,19.70
2023-05-24T11:28:16.805Z,19.65
2023-05-24T11:29:16.749Z,19.66
2023-05-24T11:30:16.733Z,19.60
2023-05-24T11:31:16.785Z,19.66
2023-05-24T11:32:16.795Z,19.53
2023-05-24T11:33:16.771Z,19.57
2023-05-24T11:34:16.695Z,19.63
2023-05-24T11:35:16.668Z,19.60
2023-05-24T11:36:16.659Z,19.53
2023-05-24T11:37:17.481Z,19.47
2023-05-24T11:38:16.673Z,19.42
2023-05-24T11:39:16.812Z,19.39
2023-05-24T11:40:16.621Z,19.38
2023-05-24T11:41:16.595Z,19.23
2023-05-24T11:42:16.607Z,19.18
2023-05-24T11:43:16.868Z,19.13
2023-05-24T11:44:16.602Z,19.13
2023-05-24T11:45:16.545Z,19.05
2023-05-24T11:46:16.577Z,18.91
2023-05-24T11:47:16.556Z,18.76
2023-05-24T11:48:16.685Z,18.59
2023-05-24T11:49:16.545Z,18.62
2023-05-24T11:50:16.531Z,18.54
2023-05-24T11:51:16.495Z,18.49
2023-05-24T11:52:16.480Z,18.39
2023-05-24T11:53:16.477Z,18.27
2023-05-24T11:54:16.451Z,18.33
2023-05-24T11:55:16.851Z,18.18
2023-05-24T11:56:16.454Z,18.09
2023-05-24T11:57:16.456Z,17.99
2023-05-24T11:58:16.454Z,17.94
2023-05-24T11:59:16.434Z,17.95
2023-05-24T12:00:16.384Z,17.74
2023-05-24T12:01:16.380Z,17.74
2023-05-24T12:02:16.424Z,17.67
2023-05-24T12:03:16.449Z,17.50
2023-05-24T12:04:16.393Z,17.51
2023-05-24T12:05:16.320Z,17.41
2023-05-24T12:06:16.316Z,17.35
2023-05-24T12:07:16.327Z,17.35
2023-05-24T12:08:16.339Z,17.29
2023-05-24T12:09:16.281Z,17.17
2023-05-24T12:10:16.289Z,17.23
2023-05-24T12:11:16.291Z,17.13
2023-05-24T12:12:16.257Z,17.15
2023-05-24T12:13:16.241Z,17.15
2023-05-24T12:14:16.266Z,17.10
2023-05-24T12:15:16.227Z,17.06
2023-05-24T12:16:16.234Z,17.03
2023-05-24T12:17:16.213Z,16.93
2023-05-24T12:18:16.220Z,16.98
2023-05-24T12:19:28.216Z,16.85
2023-05-24T12:20:17.191Z,16.95
2023-05-24T12:21:16.154Z,16.88
2023-05-24T12:22:16.159Z,16.90
2023-05-24T12:23:16.118Z,16.81
2023-05-24T12:24:16.132Z,16.78
2023-05-24T12:25:16.099Z,16.81
2023-05-24T12:26:16.108Z,16.68
2023-05-24T12:27:16.104Z,16.73
2023-05-24T12:28:16.071Z,16.70
2023-05-24T12:29:16.065Z,16.74
2023-05-24T12:30:16.095Z,16.70
2023-05-24T12:31:16.055Z,16.80
2023-05-24T12:32:16.041Z,16.80
2023-05-24T12:33:16.022Z,16.81
2023-05-24T12:34:16.011Z,16.92
2023-05-24T12:35:15.996Z,16.95
2023-05-24T12:36:15.996Z,17.07
2023-05-24T12:37:16.014Z,17.04
2023-05-24T12:38:15.962Z,17.17
2023-05-24T12:39:15.952Z,17.14
2023-05-24T12:40:15.950Z,17.18
2023-05-24T12:41:15.920Z,17.26
2023-05-24T12:42:15.924Z,17.33
2023-05-24T12:43:15.917Z,17.38
2023-05-24T12:44:15.889Z,17.54
2023-05-24T12:45:15.887Z,17.53
2023-05-24T12:46:15.889Z,17.47
2023-05-24T12:47:15.945Z,17.48
2023-05-24T12:48:15.958Z,17.59
2023-05-24T12:49:15.844Z,17.69
2023-05-24T12:50:15.846Z,17.67
2023-05-24T12:51:15.822Z,17.87
2023-05-24T12:52:15.835Z,17.85
2023-05-24T12:53:15.820Z,17.84
2023-05-24T12:54:15.794Z,17.85
2023-05-24T12:55:15.772Z,18.00
2023-05-24T12:56:15.781Z,17.95
2023-05-24T12:57:15.732Z,18.03
2023-05-24T12:58:15.770Z,17.87